createdAt,value
2022-12-18T00:00:10.583Z,-1.74
2022-12-18T00:03:05.562Z,-1.70
2022-12-18T00:05:33.590Z,-1.63
2022-12-18T00:08:01.554Z,-1.60
2022-12-18T00:10:30.267Z,-1.59
2022-12-18T00:12:58.220Z,-1.53
2022-12-18T00:15:26.339Z,-1.50
2022-12-18T00:17:54.271Z,-1.49
2022-12-18T00:20:26.684Z,-1.45
2022-12-18T00:23:00.641Z,-1.42
2022-12-18T00:25:28.605Z,-1.41
2022-12-18T00:27:56.696Z,-1.40
2022-12-18T00:30:24.772Z,-1.39
2022-12-18T00:32:54.849Z,-1.37
2022-12-18T00:35:23.080Z,-1.35
2022-12-18T00:37:51.166Z,-1.33
2022-12-18T00:40:19.181Z,-1.34
2022-12-18T00:42:59.473Z,-1.36
2022-12-18T00:45:28.396Z,-1.38
2022-12-18T00:47:57.633Z,-1.39
2022-12-18T00:50:26.062Z,-1.40
2022-12-18T00:52:54.077Z,-1.40
2022-12-18T00:55:21.903Z,-1.39
2022-12-18T00:57:51.769Z,-1.37
2022-12-18T01:00:20.111Z,-1.37
2022-12-18T01:02:48.303Z,-1.36
2022-12-18T01:05:16.627Z,-1.34
2022-12-18T01:07:44.665Z,-1.32
2022-12-18T01:10:13.904Z,-1.32
2022-12-18T01:12:42.862Z,-1.30
2022-12-18T01:15:14.071Z,-1.29
2022-12-18T01:17:42.599Z,-1.27
2022-12-18T01:20:12.612Z,-1.31
2022-12-18T01:22:40.725Z,-1.36
2022-12-18T01:25:09.791Z,-1.41
2022-12-18T01:27:37.726Z,-1.38
2022-12-18T01:30:06.271Z,-1.39
2022-12-18T01:32:34.222Z,-1.37
2022-12-18T01:35:04.420Z,-1.33
2022-12-18T01:37:32.406Z,-1.30
2022-12-18T01:40:00.422Z,-1.28
2022-12-18T01:42:28.546Z,-1.25
2022-12-18T01:44:59.513Z,-1.22
2022-12-18T01:47:41.824Z,-1.21
2022-12-18T01:50:22.448Z,-1.20
2022-12-18T01:52:55.100Z,-1.23
2022-12-18T01:55:24.762Z,-1.25
2022-12-18T01:57:56.202Z,-1.26
2022-12-18T02:00:24.990Z,-1.26
2022-12-18T02:02:53.345Z,-1.24
2022-12-18T02:05:42.325Z,-1.23
2022-12-18T02:08:36.548Z,-1.23
2022-12-18T02:11:12.131Z,-1.22
2022-12-18T02:13:46.038Z,-1.20
2022-12-18T02:16:28.004Z,-1.18
2022-12-18T02:19:01.438Z,-1.17
2022-12-18T02:21:29.514Z,-1.21
2022-12-18T02:24:15.332Z,-1.24
2022-12-18T02:26:58.233Z,-1.26
2022-12-18T02:29:57.624Z,-1.28
2022-12-18T02:32:29.752Z,-1.33
2022-12-18T02:35:00.580Z,-1.35
2022-12-18T02:37:32.022Z,-1.36
2022-12-18T02:40:05.521Z,-1.35
2022-12-18T02:42:33.906Z,-1.34
2022-12-18T02:45:02.618Z,-1.34
2022-12-18T02:47:35.091Z,-1.32
2022-12-18T02:50:35.793Z,-1.30
2022-12-18T02:53:20.572Z,-1.31
2022-12-18T02:56:10.737Z,-1.30
2022-12-18T02:59:01.921Z,-1.30
2022-12-18T03:01:53.594Z,-1.32
2022-12-18T03:04:40.250Z,-1.33
2022-12-18T03:07:16.494Z,-1.34
2022-12-18T03:09:47.092Z,-1.34
2022-12-18T03:12:28.803Z,-1.33
2022-12-18T03:15:20.359Z,-1.34
2022-12-18T03:18:08.423Z,-1.34
2022-12-18T03:20:40.008Z,-1.34
2022-12-18T03:23:12.768Z,-1.34
2022-12-18T03:25:45.259Z,-1.34
2022-12-18T03:28:16.975Z,-1.35
2022-12-18T03:30:48.844Z,-1.32
2022-12-18T03:33:26.938Z,-1.30
2022-12-18T03:35:56.596Z,-1.31
2022-12-18T03:38:25.867Z,-1.33
2022-12-18T03:41:32.848Z,-1.32
2022-12-18T03:44:36.941Z,-1.31
2022-12-18T03:47:05.038Z,-1.29
2022-12-18T03:49:58.245Z,-1.28
2022-12-18T03:53:01.646Z,-1.29
2022-12-18T03:55:35.695Z,-1.32
2022-12-18T03:58:08.574Z,-1.35
2022-12-18T04:01:01.605Z,-1.37
2022-12-18T04:03:33.572Z,-1.36
2022-12-18T04:06:03.231Z,-1.39
2022-12-18T04:08:31.821Z,-1.35
2022-12-18T04:11:06.111Z,-1.35
2022-12-18T04:13:36.698Z,-1.35
2022-12-18T04:16:07.759Z,-1.35
2022-12-18T04:18:37.713Z,-1.38
2022-12-18T04:21:05.970Z,-1.36
2022-12-18T04:23:34.354Z,-1.36
2022-12-18T04:26:03.140Z,-1.36
2022-12-18T04:28:50.076Z,-1.36
2022-12-18T04:31:18.242Z,-1.34
2022-12-18T04:33:46.459Z,-1.33
2022-12-18T04:36:15.077Z,-1.36
2022-12-18T04:38:43.397Z,-1.39
2022-12-18T04:41:13.572Z,-1.41
2022-12-18T04:43:42.253Z,-1.42
2022-12-18T04:46:10.891Z,-1.41
2022-12-18T04:48:40.005Z,-1.41
2022-12-18T04:51:08.472Z,-1.41
2022-12-18T04:53:36.665Z,-1.39
2022-12-18T04:56:06.168Z,-1.39
2022-12-18T04:58:35.019Z,-1.38
2022-12-18T05:01:03.429Z,-1.38
2022-12-18T05:03:31.868Z,-1.36
2022-12-18T05:06:00.482Z,-1.37
2022-12-18T05:08:28.450Z,-1.38
2022-12-18T05:11:05.200Z,-1.38
2022-12-18T05:13:33.996Z,-1.37
2022-12-18T05:16:02.003Z,-1.35
2022-12-18T05:18:30.244Z,-1.35
2022-12-18T05:20:58.721Z,-1.37
2022-12-18T05:23:27.305Z,-1.46
2022-12-18T05:26:01.679Z,-1.46
2022-12-18T05:28:32.022Z,-1.44
2022-12-18T05:31:01.994Z,-1.43
2022-12-18T05:33:31.640Z,-1.46
2022-12-18T05:36:04.435Z,-1.50
2022-12-18T05:38:35.152Z,-1.52
2022-12-18T05:41:04.052Z,-1.54
2022-12-18T05:43:32.492Z,-1.55
2022-12-18T05:46:08.555Z,-1.56
2022-12-18T05:48:36.554Z,-1.56
2022-12-18T05:51:16.101Z,-1.54
2022-12-18T05:53:44.840Z,-1.52
2022-12-18T05:56:16.639Z,-1.51
2022-12-18T05:58:45.328Z,-1.51
2022-12-18T06:01:18.652Z,-1.50
2022-12-18T06:03:47.306Z,-1.49
2022-12-18T06:06:16.975Z,-1.53
2022-12-18T06:08:46.780Z,-1.49
2022-12-18T06:11:19.216Z,-1.48
2022-12-18T06:13:47.678Z,-1.47
2022-12-18T06:16:15.749Z,-1.48
2022-12-18T06:18:43.816Z,-1.47
2022-12-18T06:21:11.983Z,-1.47
2022-12-18T06:23:40.626Z,-1.46
2022-12-18T06:26:10.681Z,-1.46
2022-12-18T06:28:38.788Z,-1.52
2022-12-18T06:31:08.370Z,-1.56
2022-12-18T06:33:37.111Z,-1.59
2022-12-18T06:36:14.246Z,-1.65
2022-12-18T06:38:44.758Z,-1.68
2022-12-18T06:41:15.772Z,-1.74
2022-12-18T06:43:46.227Z,-1.74
2022-12-18T06:46:14.539Z,-1.78
2022-12-18T06:48:42.642Z,-1.81
2022-12-18T06:51:11.738Z,-1.84
2022-12-18T06:53:40.458Z,-1.86
2022-12-18T06:56:10.541Z,-1.85
2022-12-18T06:58:39.591Z,-1.82
2022-12-18T07:01:11.394Z,-1.80
2022-12-18T07:03:42.160Z,-1.79
2022-12-18T07:06:16.174Z,-1.79
2022-12-18T07:08:44.764Z,-1.78
2022-12-18T07:11:13.190Z,-1.77
2022-12-18T07:13:41.529Z,-1.74
2022-12-18T07:16:22.579Z,-1.71
2022-12-18T07:18:52.641Z,-1.68
2022-12-18T07:24:04.469Z,-1.61
2022-12-18T07:26:32.526Z,-1.58
2022-12-18T07:29:00.835Z,-1.54
2022-12-18T07:31:34.427Z,-1.51
2022-12-18T07:34:03.650Z,-1.52
2022-12-18T07:36:31.805Z,-1.44
2022-12-18T07:39:00.030Z,-1.39
2022-12-18T07:41:28.457Z,-1.30
2022-12-18T07:43:56.946Z,-1.20
2022-12-18T07:46:25.286Z,-1.09
2022-12-18T07:48:53.187Z,-1.02
2022-12-18T07:51:21.176Z,-0.93
2022-12-18T07:53:50.324Z,-0.86
2022-12-18T07:56:30.437Z,-0.79
2022-12-18T07:59:00.700Z,-0.71
2022-12-18T08:01:29.303Z,-0.62
2022-12-18T08:03:58.441Z,-0.55
2022-12-18T08:06:26.836Z,-0.49
2022-12-18T08:08:56.657Z,-0.42
2022-12-18T08:11:27.292Z,-0.33
2022-12-18T08:13:56.268Z,-0.17
2022-12-18T08:16:24.620Z,0.02
2022-12-18T08:18:53.455Z,0.18
2022-12-18T08:21:27.363Z,0.30
2022-12-18T08:23:58.818Z,0.36
2022-12-18T08:26:28.358Z,0.41
2022-12-18T08:28:58.028Z,0.51
2022-12-18T08:31:28.916Z,0.65
2022-12-18T08:33:56.969Z,0.77
2022-12-18T08:36:25.584Z,0.86
2022-12-18T08:38:55.054Z,0.89
2022-12-18T08:41:23.590Z,0.94
2022-12-18T08:44:10.522Z,1.11
2022-12-18T08:46:40.328Z,1.29
2022-12-18T08:49:10.314Z,1.40
2022-12-18T08:51:38.738Z,1.51
2022-12-18T08:54:07.212Z,1.63
2022-12-18T08:56:35.399Z,1.72
2022-12-18T08:59:03.974Z,1.77
2022-12-18T09:01:32.205Z,1.82
2022-12-18T09:04:01.007Z,1.83
2022-12-18T09:06:28.994Z,1.80
2022-12-18T09:08:58.523Z,1.85
2022-12-18T09:11:27.454Z,1.96
2022-12-18T09:13:55.714Z,2.07
2022-12-18T09:16:28.819Z,2.09
2022-12-18T09:19:00.920Z,1.94
2022-12-18T09:21:32.898Z,1.81
2022-12-18T09:24:03.393Z,1.72
2022-12-18T09:26:31.493Z,1.64
2022-12-18T09:29:12.366Z,1.57
2022-12-18T09:31:40.632Z,1.52
2022-12-18T09:34:08.554Z,1.54
2022-12-18T09:36:36.407Z,1.52
2022-12-18T09:39:08.541Z,1.50
2022-12-18T09:41:41.631Z,1.52
2022-12-18T09:44:18.726Z,1.59
2022-12-18T09:46:59.405Z,1.70
2022-12-18T09:49:31.631Z,1.72
2022-12-18T09:52:06.343Z,1.66
2022-12-18T09:54:44.689Z,1.69
2022-12-18T09:57:16.770Z,1.75
2022-12-18T09:59:51.151Z,1.84
2022-12-18T10:02:24.056Z,1.90
2022-12-18T10:05:08.955Z,2.00
2022-12-18T10:07:45.107Z,2.17
2022-12-18T10:10:28.812Z,2.41
2022-12-18T10:13:08.535Z,2.67
2022-12-18T10:15:58.481Z,2.93
2022-12-18T10:18:26.621Z,2.98
2022-12-18T10:21:01.344Z,2.91
2022-12-18T10:23:48.191Z,2.85
2022-12-18T10:26:16.814Z,2.82
2022-12-18T10:28:46.393Z,2.89
2022-12-18T10:31:32.692Z,2.97
2022-12-18T10:34:00.721Z,2.98
2022-12-18T10:36:28.844Z,3.00
2022-12-18T10:39:16.160Z,3.00
2022-12-18T10:41:44.072Z,3.00
2022-12-18T10:44:21.489Z,2.97
2022-12-18T10:46:54.335Z,2.90
2022-12-18T10:49:31.465Z,2.75
2022-12-18T10:52:29.023Z,2.59
2022-12-18T10:55:02.619Z,2.48
2022-12-18T10:57:36.864Z,2.49
2022-12-18T11:00:29.406Z,2.55
2022-12-18T11:02:58.029Z,2.61
2022-12-18T11:05:35.024Z,2.63
2022-12-18T11:08:03.402Z,2.63
2022-12-18T11:10:33.027Z,2.63
2022-12-18T11:13:21.764Z,2.69
2022-12-18T11:15:50.657Z,2.71
2022-12-18T11:18:26.152Z,2.75
2022-12-18T11:20:59.134Z,2.84
2022-12-18T11:23:27.659Z,2.87
2022-12-18T11:25:59.615Z,2.92
2022-12-18T11:28:35.105Z,2.94
2022-12-18T11:31:18.211Z,2.98
2022-12-18T11:34:19.831Z,3.02
2022-12-18T11:36:44.056Z,2.98
2022-12-18T11:39:21.159Z,2.78
2022-12-18T11:42:12.905Z,2.60
2022-12-18T11:44:53.805Z,2.47
2022-12-18T11:47:33.979Z,2.47
2022-12-18T11:50:04.087Z,2.50
2022-12-18T11:52:40.250Z,2.51
2022-12-18T11:55:16.246Z,2.66
2022-12-18T11:57:56.491Z,2.94
2022-12-18T12:00:25.500Z,3.38
2022-12-18T12:03:08.961Z,3.80
2022-12-18T12:06:02.888Z,4.25
2022-12-18T12:08:52.823Z,4.44
2022-12-18T12:11:31.011Z,4.39
2022-12-18T12:14:08.167Z,3.95
2022-12-18T12:17:08.640Z,3.49
2022-12-18T12:20:04.633Z,3.18
2022-12-18T12:22:49.235Z,3.40
2022-12-18T12:25:42.524Z,4.29
2022-12-18T12:28:13.566Z,5.15
2022-12-18T12:31:06.711Z,5.66
2022-12-18T12:33:47.068Z,6.25
2022-12-18T12:36:33.610Z,6.81
2022-12-18T12:39:06.596Z,7.27
2022-12-18T12:41:56.169Z,7.51
2022-12-18T12:44:33.468Z,7.65
2022-12-18T12:47:04.853Z,7.75
2022-12-18T12:49:39.048Z,7.86
2022-12-18T12:52:13.009Z,7.85
2022-12-18T12:54:42.270Z,7.57
2022-12-18T12:57:25.306Z,7.21
2022-12-18T12:59:53.464Z,6.78
2022-12-18T13:02:21.795Z,6.35
2022-12-18T13:04:53.483Z,5.97
2022-12-18T13:07:34.930Z,5.64
2022-12-18T13:10:20.666Z,5.27
2022-12-18T13:13:02.959Z,4.93
2022-12-18T13:15:39.882Z,4.68
2022-12-18T13:18:11.317Z,4.44
2022-12-18T13:20:55.380Z,4.24
2022-12-18T13:23:26.832Z,4.04
2022-12-18T13:26:07.216Z,3.87
2022-12-18T13:28:47.427Z,3.66
2022-12-18T13:31:16.366Z,3.47
2022-12-18T13:34:24.512Z,3.30
2022-12-18T13:36:36.412Z,3.09
2022-12-18T13:39:12.736Z,2.92
2022-12-18T13:41:42.796Z,2.77
2022-12-18T13:44:13.818Z,2.62
2022-12-18T13:46:47.398Z,2.45
2022-12-18T13:49:15.572Z,2.30
2022-12-18T13:51:55.839Z,2.18
2022-12-18T13:54:37.899Z,2.03
2022-12-18T13:57:07.824Z,1.89
2022-12-18T13:59:40.475Z,1.72
2022-12-18T14:02:23.744Z,1.57
2022-12-18T14:04:52.295Z,1.45
2022-12-18T14:07:23.078Z,1.34
2022-12-18T14:10:06.439Z,1.23
2022-12-18T14:13:00.953Z,1.11
2022-12-18T14:15:42.474Z,1.00
2022-12-18T14:18:36.710Z,0.89
2022-12-18T14:21:07.824Z,0.75
2022-12-18T14:23:40.248Z,0.60
2022-12-18T14:26:28.298Z,0.45
2022-12-18T14:28:58.132Z,0.34
2022-12-18T14:31:29.328Z,0.16
2022-12-18T14:33:57.729Z,-0.05
2022-12-18T14:36:28.055Z,-0.21
2022-12-18T14:38:58.779Z,-0.34
2022-12-18T14:41:28.905Z,-0.46
2022-12-18T14:44:07.032Z,-0.54
2022-12-18T14:46:34.946Z,-0.60
2022-12-18T14:49:04.333Z,-0.66
2022-12-18T14:51:35.725Z,-0.74
2022-12-18T14:54:09.416Z,-0.81
2022-12-18T14:56:44.121Z,-0.89
2022-12-18T14:59:24.769Z,-1.00
2022-12-18T15:02:02.541Z,-1.15
2022-12-18T15:04:44.204Z,-1.25
2022-12-18T15:07:18.019Z,-1.34
2022-12-18T15:10:10.352Z,-1.43
2022-12-18T15:12:44.379Z,-1.50
2022-12-18T15:15:34.868Z,-1.56
2022-12-18T15:18:14.052Z,-1.61
2022-12-18T15:20:46.347Z,-1.69
2022-12-18T15:23:34.545Z,-1.79
2022-12-18T15:26:07.017Z,-1.90
2022-12-18T15:29:03.018Z,-2.00
2022-12-18T15:31:33.353Z,-2.09
2022-12-18T15:34:22.705Z,-2.17
2022-12-18T15:36:51.487Z,-2.25
2022-12-18T15:39:19.292Z,-2.31
2022-12-18T15:42:05.902Z,-2.38
2022-12-18T15:44:33.814Z,-2.47
2022-12-18T15:47:01.751Z,-2.57
2022-12-18T15:49:29.643Z,-2.68
2022-12-18T15:51:59.362Z,-2.80
2022-12-18T15:54:46.267Z,-2.93
2022-12-18T15:57:26.818Z,-3.02
2022-12-18T15:59:57.626Z,-3.08
2022-12-18T16:02:26.010Z,-3.18
2022-12-18T16:04:55.184Z,-3.09
2022-12-18T16:07:25.449Z,-3.10
2022-12-18T16:09:55.834Z,-3.13
2022-12-18T16:12:26.061Z,-3.18
2022-12-18T16:14:53.885Z,-3.20
2022-12-18T16:17:22.789Z,-3.27
2022-12-18T16:19:50.630Z,-3.33
2022-12-18T16:22:22.383Z,-3.38
2022-12-18T16:24:50.996Z,-3.44
2022-12-18T16:27:19.597Z,-3.49
2022-12-18T16:29:47.556Z,-3.53
2022-12-18T16:32:16.827Z,-3.56
2022-12-18T16:34:45.022Z,-3.56
2022-12-18T16:37:14.072Z,-3.57
2022-12-18T16:39:42.229Z,-3.61
2022-12-18T16:42:17.533Z,-3.63
2022-12-18T16:44:46.816Z,-3.65
2022-12-18T16:47:15.288Z,-3.69
2022-12-18T16:49:46.009Z,-3.74
2022-12-18T16:52:14.763Z,-3.80
2022-12-18T16:54:42.665Z,-3.84
2022-12-18T16:57:13.238Z,-3.92
2022-12-18T16:59:41.226Z,-3.99
2022-12-18T17:02:14.302Z,-4.07
2022-12-18T17:04:42.658Z,-4.15
2022-12-18T17:07:10.748Z,-4.18
2022-12-18T17:09:39.219Z,-4.22
2022-12-18T17:12:07.141Z,-4.31
2022-12-18T17:14:35.046Z,-4.40
2022-12-18T17:19:52.258Z,-4.45
2022-12-18T17:22:20.916Z,-4.50
2022-12-18T17:24:48.741Z,-4.54
2022-12-18T17:27:16.734Z,-4.58
2022-12-18T17:29:48.249Z,-4.65
2022-12-18T17:32:17.405Z,-4.72
2022-12-18T17:34:45.304Z,-4.75
2022-12-18T17:37:13.110Z,-4.76
2022-12-18T17:39:41.105Z,-4.79
2022-12-18T17:42:11.474Z,-4.81
2022-12-18T17:44:44.045Z,-4.82
2022-12-18T17:47:13.295Z,-4.82
2022-12-18T17:49:41.364Z,-4.82
2022-12-18T17:52:09.844Z,-4.83
2022-12-18T17:54:40.057Z,-4.83
2022-12-18T17:57:08.119Z,-4.83
2022-12-18T17:59:36.045Z,-4.87
2022-12-18T18:02:03.932Z,-4.92
2022-12-18T18:04:32.678Z,-4.96
2022-12-18T18:07:00.494Z,-5.01
2022-12-18T18:09:28.562Z,-5.08
2022-12-18T18:12:16.161Z,-5.14
2022-12-18T18:14:45.037Z,-5.19
2022-12-18T18:17:12.902Z,-5.24
2022-12-18T18:19:42.219Z,-5.26
2022-12-18T18:22:11.110Z,-5.28
2022-12-18T18:24:39.001Z,-5.29
2022-12-18T18:27:06.895Z,-5.33
2022-12-18T18:29:34.743Z,-5.30
2022-12-18T18:32:02.814Z,-5.31
2022-12-18T18:34:31.688Z,-5.33
2022-12-18T18:37:01.679Z,-5.37
2022-12-18T18:39:29.888Z,-5.44
2022-12-18T18:41:58.261Z,-5.52
2022-12-18T18:44:26.660Z,-5.59
2022-12-18T18:46:58.060Z,-5.65
2022-12-18T18:49:27.729Z,-5.71
2022-12-18T18:51:57.276Z,-5.81
2022-12-18T18:54:26.891Z,-5.83
2022-12-18T18:59:43.935Z,-5.90
2022-12-18T19:02:12.738Z,-5.90
2022-12-18T19:04:46.399Z,-5.90
2022-12-18T19:07:29.521Z,-5.89
2022-12-18T19:10:07.246Z,-5.88
2022-12-18T19:12:54.290Z,-5.89
2022-12-18T19:15:22.812Z,-5.90
2022-12-18T19:17:50.955Z,-5.93
2022-12-18T19:20:19.199Z,-5.93
2022-12-18T19:22:55.768Z,-5.94
2022-12-18T19:25:30.950Z,-5.94
2022-12-18T19:28:21.198Z,-5.97
2022-12-18T19:30:59.420Z,-6.03
2022-12-18T19:33:43.330Z,-6.08
2022-12-18T19:36:13.541Z,-6.10
2022-12-18T19:38:43.048Z,-6.11
2022-12-18T19:41:14.187Z,-6.13
2022-12-18T19:43:43.103Z,-6.19
2022-12-18T19:46:12.908Z,-6.23
2022-12-18T19:48:45.388Z,-6.28
2022-12-18T19:51:16.345Z,-6.33
2022-12-18T19:53:45.073Z,-6.38
2022-12-18T19:56:14.633Z,-6.43
2022-12-18T20:01:38.064Z,-6.59
2022-12-18T20:04:06.396Z,-6.58
2022-12-18T20:06:36.008Z,-6.59
2022-12-18T20:09:05.814Z,-6.59
2022-12-18T20:11:36.391Z,-6.59
2022-12-18T20:14:11.084Z,-6.60
2022-12-18T20:16:39.139Z,-6.62
2022-12-18T20:19:07.519Z,-6.69
2022-12-18T20:21:36.466Z,-6.76
2022-12-18T20:24:07.099Z,-6.80
2022-12-18T20:26:34.807Z,-6.84
2022-12-18T20:29:02.551Z,-6.83
2022-12-18T20:31:30.356Z,-6.83
2022-12-18T20:34:01.560Z,-6.85
2022-12-18T20:36:31.827Z,-6.83
2022-12-18T20:39:03.893Z,-6.85
2022-12-18T20:41:37.661Z,-6.86
2022-12-18T20:44:14.039Z,-6.87
2022-12-18T22:37:34.844Z,-9.02
2022-12-18T22:40:03.937Z,-8.79
2022-12-18T22:42:32.073Z,-8.42
2022-12-18T22:45:00.801Z,-8.07
2022-12-18T22:47:31.791Z,-7.83
2022-12-18T22:49:59.938Z,-7.62
2022-12-18T22:52:28.252Z,-7.47
2022-12-18T22:54:56.622Z,-7.34
2022-12-18T22:57:24.698Z,-7.19
2022-12-18T22:59:52.834Z,-7.08
2022-12-18T23:02:21.055Z,-6.96
2022-12-18T23:04:49.322Z,-6.87
2022-12-18T23:07:17.236Z,-6.82
2022-12-18T23:09:45.181Z,-6.84
2022-12-18T23:12:18.780Z,-6.87
2022-12-18T23:14:47.445Z,-6.89
2022-12-18T23:17:15.746Z,-6.90
2022-12-18T23:19:48.829Z,-6.92
2022-12-18T23:22:17.701Z,-6.91
2022-12-18T23:24:46.437Z,-6.83
2022-12-18T23:27:14.437Z,-6.76
2022-12-18T23:29:42.646Z,-6.70
2022-12-18T23:32:13.002Z,-6.67
2022-12-18T23:34:41.194Z,-6.66
2022-12-18T23:37:09.303Z,-6.68
2022-12-18T23:39:37.227Z,-6.76
2022-12-18T23:42:05.406Z,-6.85
2022-12-18T23:44:34.027Z,-6.91
2022-12-18T23:47:04.860Z,-6.91
2022-12-18T23:49:32.958Z,-6.86
2022-12-18T23:52:01.133Z,-6.78
2022-12-18T23:54:33.550Z,-6.72
2022-12-18T23:57:02.222Z,-6.69
2022-12-18T23:59:30.243Z,-6.70
